Preview of NWS' New Version of Forecast
This preview is not operational and should not be used for support decisions.

Terminal Aerodrome Forecast (TAF)

Issued by National Weather Service (NWS)

                            
796 
FTUS42 KMFL 180901 AAA
TAFMIA
TAF AMD
KMIA 180901Z 1809/1912 VRB04KT P6SM FEW020 SCT250
     FM181500 07007KT P6SM FEW030 SCT060 SCT250
     FM181700 10011KT P6SM VCSH SCT025 BKN050 BKN250
     FM182300 09007KT P6SM FEW030 SCT060 BKN250
     FM190200 VRB04KT P6SM FEW060 BKN250=